Time;durP1;ratioP1;P1;durP2;ratioP2;P2;SDS_P1;SDS_P2;PMS_P1;PMS_P2;Temp;Humidity;BMP_temperature;BMP_pressure;BME280_temperature;BME280_humidity;BME280_pressure;Samples;Min_cycle;Max_cycle;Signal;HPM_P1;HPM_P2
2022/02/02 00:02:16;;;;;;;7.82;1.85;;;;;;;;;;5054190;28;20052;-44
2022/02/02 00:04:47;;;;;;;7.85;1.85;;;;;;;;;;5054632;28;20052;-44
2022/02/02 00:09:57;;;;;;;7.55;2.17;;;;;;;;;;5054430;28;20091;-45
2022/02/02 00:12:41;;;;;;;9.30;2.38;;;;;;;;;;5054444;28;20031;-44
2022/02/02 00:15:37;;;;;;;8.50;2.67;;;;;;;;;;5054467;28;20110;-44
2022/02/02 00:20:42;;;;;;;8.02;2.22;;;;;;;;;;5053978;28;20434;-45
2022/02/02 00:23:15;;;;;;;13.77;3.15;;;;;;;;;;5053963;28;20041;-44
2022/02/02 00:25:50;;;;;;;6.20;2.28;;;;;;;;;;5054205;28;20025;-45
2022/02/02 00:28:19;;;;;;;7.35;2.00;;;;;;;;;;5054164;28;20036;-44
2022/02/02 00:30:45;;;;;;;9.87;2.80;;;;;;;;;;5053760;28;20037;-45
2022/02/02 00:35:42;;;;;;;9.00;2.58;;;;;;;;;;5053745;28;20119;-45
2022/02/02 00:38:08;;;;;;;9.13;2.35;;;;;;;;;;5053958;28;20051;-44
2022/02/02 00:40:34;;;;;;;13.63;2.38;;;;;;;;;;5053600;28;20535;-44
2022/02/02 00:43:00;;;;;;;7.22;2.22;;;;;;;;;;5053577;28;20025;-45
2022/02/02 00:45:32;;;;;;;10.00;2.22;;;;;;;;;;5053748;28;20021;-44
2022/02/02 00:48:00;;;;;;;8.95;2.25;;;;;;;;;;5053471;28;20061;-44
2022/02/02 00:50:27;;;;;;;8.13;2.58;;;;;;;;;;5053324;28;20123;-44
2022/02/02 00:52:53;;;;;;;6.90;2.08;;;;;;;;;;5053423;28;20434;-44
2022/02/02 00:55:19;;;;;;;11.10;2.42;;;;;;;;;;5053328;28;20104;-43
2022/02/02 00:57:45;;;;;;;9.80;2.15;;;;;;;;;;5053236;28;20063;-45
2022/02/02 01:00:12;;;;;;;10.93;3.20;;;16.20;90.20;;;;;;5052711;28;20113;-44
2022/02/02 01:02:38;;;;;;;6.65;1.83;;;;;;;;;;5052916;28;20060;-45
2022/02/02 01:05:05;;;;;;;10.00;2.40;;;;;;;;;;5053117;28;20059;-44
2022/02/02 01:10:30;;;;;;;10.32;2.47;;;;;;;;;;5011860;28;20047;-44
2022/02/02 01:21:27;;;;;;;10.07;2.28;;;;;;;;;;5053449;28;20082;-44
2022/02/02 01:29:22;;;;;;;6.40;2.08;;;;;;;;;;5052777;28;20133;-44
2022/02/02 01:31:48;;;;;;;6.78;2.25;;;;;;;;;;5052712;28;20028;-45
2022/02/02 01:34:14;;;;;;;11.77;2.42;;;;;;;;;;5052614;28;20460;-44
2022/02/02 01:36:40;;;;;;;9.75;2.45;;;;;;;;;;5052622;28;20094;-44
2022/02/02 01:39:09;;;;;;;9.63;2.30;;;;;;;;;;5052780;28;20447;-44
2022/02/02 01:41:39;;;;;;;6.63;1.95;;;;;;;;;;5052565;28;20025;-45
2022/02/02 01:44:15;;;;;;;9.73;2.40;;;;;;;;;;5052466;28;20115;-44
2022/02/02 01:46:42;;;;;;;9.20;2.33;;;;;;;;;;5052785;28;20242;-45
2022/02/02 01:55:38;;;;;;;7.03;1.95;;;16.00;83.90;;;;;;5052660;28;20597;-46
2022/02/02 01:58:34;;;;;;;9.05;2.72;;;16.00;83.50;;;;;;5052228;28;20029;-45
2022/02/02 02:01:00;;;;;;;8.43;1.95;;;;;;;;;;5052436;28;20383;-45
2022/02/02 02:03:26;;;;;;;11.30;2.58;;;;;;;;;;5052077;28;20052;-44
2022/02/02 02:05:52;;;;;;;8.25;2.35;;;;;;;;;;5052276;28;20039;-47
2022/02/02 02:08:18;;;;;;;8.13;2.30;;;;;;;;;;5052220;28;20052;-47
2022/02/02 02:10:45;;;;;;;7.75;1.90;;;;;;;;;;5053267;28;20045;-47
2022/02/02 02:15:57;;;;;;;8.93;1.90;;;;;;;;;;5058842;28;20102;-47
2022/02/02 02:18:23;;;;;;;7.13;1.88;;;;;;;;;;5058665;28;20036;-47
2022/02/02 02:20:50;;;;;;;8.98;1.77;;;;;;;;;;5058685;28;20042;-48
2022/02/02 02:23:17;;;;;;;9.27;2.20;;;;;;;;;;5058749;28;20024;-47
2022/02/02 02:25:43;;;;;;;11.70;3.20;;;;;;;;;;5058698;28;20433;-47
2022/02/02 02:34:02;;;;;;;9.73;2.60;;;15.80;90.20;;;;;;5041281;28;20067;-49
2022/02/02 02:39:27;;;;;;;12.40;2.78;;;;;;;;;;5058586;28;20106;-48
2022/02/02 02:55:47;;;;;;;12.85;2.97;;;;;;;;;;5058749;28;20120;-45
2022/02/02 02:58:34;;;;;;;8.50;1.85;;;;;;;;;;5058410;28;20506;-44
2022/02/02 03:50:22;;;;;;;7.38;2.00;;;;;;;;;;5054691;28;20333;-44
2022/02/02 03:58:28;;;;;;;10.00;2.08;;;;;;;;;;5054591;28;20054;-44
2022/02/02 04:01:12;;;;;;;7.28;2.47;;;;;;;;;;5054685;28;20037;-45
2022/02/02 04:04:00;;;;;;;7.88;2.38;;;;;;;;;;5054174;28;20392;-44
2022/02/02 04:06:27;;;;;;;9.43;2.67;;;;;;;;;;5054289;28;20025;-44
2022/02/02 04:08:53;;;;;;;8.32;1.88;;;;;;;;;;5054403;28;20414;-44
2022/02/02 04:11:30;;;;;;;9.88;2.30;;;;;;;;;;5054175;28;20021;-44
2022/02/02 04:37:26;;;;;;;9.32;2.40;;;;;;;;;;5054399;28;20044;-44
2022/02/02 04:39:07;;;;;;;9.80;2.65;;;;;;;;;;5053661;28;20146;-45
2022/02/02 04:58:28;;;;;;;6.88;2.15;;;;;;;;;;5053317;28;20392;-45
2022/02/02 05:01:16;;;;;;;10.23;2.67;;;;;;;;;;5039154;28;20086;-44
2022/02/02 05:03:53;;;;;;;7.05;2.10;;;;;;;;;;5052801;28;20458;-44
2022/02/02 05:09:14;;;;;;;8.05;1.85;;;;;;;;;;5053232;28;20036;-45
2022/02/02 05:49:57;;;;;;;7.63;1.92;;;15.40;90.90;;;;;;5052569;28;20087;-44
2022/02/02 05:52:24;;;;;;;7.55;2.05;;;;;;;;;;5052315;28;20052;-44
2022/02/02 05:54:50;;;;;;;6.53;1.83;;;;;;;;;;5052305;28;20063;-44
2022/02/02 05:57:16;;;;;;;6.82;1.73;;;;;;;;;;5052276;28;20025;-44
2022/02/02 05:59:43;;;;;;;6.32;2.00;;;15.40;90.80;;;;;;5052415;28;20040;-45
2022/02/02 06:02:12;;;;;;;9.38;1.90;;;15.40;90.90;;;;;;5052041;28;20037;-44
2022/02/02 06:04:46;;;;;;;9.73;2.10;;;15.40;90.90;;;;;;5052293;28;20025;-44
2022/02/02 06:07:13;;;;;;;5.45;1.38;;;;;;;;;;5052268;28;20276;-44
2022/02/02 06:09:42;;;;;;;7.82;2.40;;;15.60;91.10;;;;;;5052322;28;20044;-44
2022/02/02 06:12:09;;;;;;;4.27;1.33;;;;;;;;;;5052141;28;20025;-44
2022/02/02 06:14:38;;;;;;;6.68;1.70;;;15.80;90.70;;;;;;5052387;28;20645;-44
2022/02/02 06:17:07;;;;;;;7.72;1.98;;;;;;;;;;5052122;28;20029;-44
2022/02/02 06:19:33;;;;;;;6.03;1.65;;;;;;;;;;5052346;28;20036;-44
2022/02/02 06:22:19;;;;;;;5.25;2.13;;;16.20;85.00;;;;;;5052241;28;20074;-45
2022/02/02 06:24:51;;;;;;;5.93;1.70;;;16.20;90.50;;;;;;5052037;28;20112;-45
2022/02/02 06:27:25;;;;;;;5.57;1.83;;;16.20;84.40;;;;;;5051890;28;20545;-46
2022/02/02 06:30:03;;;;;;;5.57;1.50;;;16.30;84.50;;;;;;5052170;28;20033;-45
2022/02/02 06:32:37;;;;;;;6.80;1.70;;;16.30;90.40;;;;;;5051833;28;20029;-45
2022/02/02 06:35:05;;;;;;;6.38;1.80;;;16.30;90.50;;;;;;5052096;28;20029;-44
2022/02/02 06:37:31;;;;;;;8.07;1.63;;;;;;;;;;5051757;28;20025;-45
2022/02/02 06:39:57;;;;;;;6.63;1.98;;;;;;;;;;5051747;28;20036;-45
2022/02/02 06:42:23;;;;;;;5.88;2.40;;;;;;;;;;5051999;28;20306;-45
2022/02/02 06:44:49;;;;;;;5.47;1.92;;;;;;;;;;5051680;28;20480;-44
2022/02/02 06:47:15;;;;;;;5.03;1.88;;;;;;;;;;5051621;28;20025;-44
2022/02/02 06:49:44;;;;;;;5.97;1.95;;;;;;;;;;5051496;28;20033;-44
2022/02/02 06:52:22;;;;;;;5.65;1.60;;;16.20;90.50;;;;;;5051642;28;20021;-44
2022/02/02 06:55:05;;;;;;;7.35;2.20;;;16.20;84.60;;;;;;5051821;28;20026;-45
2022/02/02 06:57:50;;;;;;;6.07;1.67;;;16.30;84.70;;;;;;5052323;28;20072;-45
2022/02/02 07:04:00;;;;;;;7.82;2.47;;;16.30;84.90;;;;;;5055425;28;20124;-45
2022/02/02 07:12:00;;;;;;;10.63;2.55;;;16.30;90.60;;;;;;5055654;28;20051;-43
2022/02/02 07:14:42;;;;;;;6.93;1.98;;;;;;;;;;5055289;28;20031;-43
2022/02/02 07:17:24;;;;;;;4.68;1.80;;;;;;;;;;5055522;28;20060;-44
2022/02/02 07:20:09;;;;;;;10.88;2.38;;;16.40;90.40;;;;;;5055277;28;20075;-43
2022/02/02 07:25:42;;;;;;;7.28;2.20;;;16.40;90.30;;;;;;5055370;28;20056;-43
2022/02/02 07:28:18;;;;;;;5.35;1.83;;;;;;;;;;5054955;28;20115;-44
2022/02/02 07:30:58;;;;;;;7.22;2.00;;;16.40;90.20;;;;;;5055211;28;20045;-48
2022/02/02 07:33:31;;;;;;;;;;;16.40;90.30;;;;;;5055650;28;20382;-44
2022/02/02 07:36:14;;;;;;;8.90;2.83;;;16.40;90.30;;;;;;5055194;28;19911;-44
2022/02/02 07:38:40;;;;;;;6.82;1.85;;;;;;;;;;5055230;28;20079;-44
2022/02/02 07:41:09;;;;;;;7.47;2.33;;;16.30;90.30;;;;;;5053486;28;20025;-44
2022/02/02 07:43:41;;;;;;;7.30;2.10;;;16.40;90.30;;;;;;5054579;28;20025;-45
2022/02/02 07:46:08;;;;;;;6.88;2.80;;;16.30;90.20;;;;;;5054994;28;20021;-44
2022/02/02 07:48:35;;;;;;;6.95;1.98;;;;;;;;;;5054790;28;20029;-44
2022/02/02 07:51:05;;;;;;;5.85;1.85;;;16.30;90.30;;;;;;5054428;28;20122;-44
2022/02/02 07:53:42;;;;;;;;;;;16.30;85.00;;;;;;5054838;28;20021;-43
2022/02/02 07:56:15;;;;;;;5.68;2.13;;;;;;;;;;5054800;28;19948;-44
2022/02/02 07:58:45;;;;;;;8.20;2.40;;;;;;;;;;5054243;28;20037;-44
2022/02/02 08:01:13;;;;;;;8.23;2.63;;;;;;;;;;5054545;28;20025;-43
2022/02/02 08:03:43;;;;;;;7.53;2.13;;;;;;;;;;5054142;28;20049;-44
2022/02/02 08:06:10;;;;;;;11.40;3.15;;;;;;;;;;5054653;28;20032;-43
2022/02/02 08:08:39;;;;;;;5.82;1.83;;;;;;;;;;5053796;28;20029;-44
2022/02/02 08:11:08;;;;;;;6.63;1.80;;;;;;;;;;5054448;28;20033;-44
2022/02/02 08:13:40;;;;;;;8.90;2.63;;;;;;;;;;5054444;28;20033;-44
2022/02/02 08:16:11;;;;;;;6.13;1.95;;;16.10;88.60;;;;;;5054182;28;20029;-45
2022/02/02 08:18:39;;;;;;;6.45;2.38;;;;;;;;;;5054101;28;20055;-45
2022/02/02 08:21:05;;;;;;;5.45;2.08;;;;;;;;;;5054045;28;20033;-45
2022/02/02 08:23:31;;;;;;;8.40;2.00;;;;;;;;;;5053925;28;20112;-44
2022/02/02 08:25:59;;;;;;;9.45;2.40;;;16.10;90.40;;;;;;5053910;28;20163;-45
2022/02/02 08:28:25;;;;;;;6.93;2.08;;;;;;;;;;5053916;28;20021;-44
2022/02/02 08:30:51;;;;;;;6.07;1.80;;;;;;;;;;5053744;28;20033;-46
2022/02/02 08:33:27;;;;;;;9.25;2.30;;;;;;;;;;5053912;28;20035;-45
2022/02/02 08:35:55;;;;;;;5.82;1.67;;;;;;;;;;5053766;28;20029;-44
2022/02/02 08:41:09;;;;;;;7.72;2.03;;;;;;;;;;5053682;28;20047;-44
2022/02/02 08:43:47;;;;;;;9.35;2.03;;;;;;;;;;5053580;28;20522;-44
2022/02/02 08:46:23;;;;;;;5.93;2.17;;;;;;;;;;5053408;28;20036;-44
2022/02/02 08:48:53;;;;;;;9.90;1.92;;;16.10;90.40;;;;;;5053332;28;20361;-45
2022/02/02 08:51:21;;;;;;;6.97;1.90;;;;;;;;;;5053553;28;20079;-44
2022/02/02 08:53:52;;;;;;;5.15;1.48;;;;;;;;;;5053294;28;20104;-46
2022/02/02 08:59:01;;;;;;;4.68;1.65;;;;;;;;;;5053201;28;20079;-45
2022/02/02 09:01:30;;;;;;;7.13;2.10;;;;;;;;;;5053036;28;20029;-47
2022/02/02 09:06:41;;;;;;;6.97;1.80;;;;;;;;;;5053319;28;20355;-46
2022/02/02 09:09:17;;;;;;;6.13;1.50;;;;;;;;;;5052932;28;20056;-45
2022/02/02 09:20:34;;;;;;;4.65;1.35;;;;;;;;;;5052808;28;20407;-45
2022/02/02 09:25:37;;;;;;;5.78;1.70;;;;;;;;;;5052881;28;20086;-45
2022/02/02 09:36:12;;;;;;;4.53;1.58;;;;;;;;;;5052730;28;20044;-45
2022/02/02 09:38:38;;;;;;;8.35;1.85;;;;;;;;;;5052795;28;20021;-46
2022/02/02 09:43:55;;;;;;;5.35;1.65;;;15.90;90.90;;;;;;5052626;28;20399;-45
2022/02/02 09:46:26;;;;;;;5.20;1.42;;;;;;;;;;5052741;28;20028;-47
2022/02/02 09:48:57;;;;;;;6.75;1.63;;;;;;;;;;5052666;28;20112;-46
2022/02/02 09:51:35;;;;;;;4.65;1.40;;;;;;;;;;5052665;28;20086;-45
2022/02/02 09:54:09;;;;;;;4.13;1.55;;;;;;;;;;5052196;28;20021;-46
2022/02/02 09:57:12;;;;;;;5.68;1.73;;;;;;;;;;5052544;28;20064;-46
2022/02/02 09:59:49;;;;;;;4.93;1.88;;;;;;;;;;5052109;28;20406;-46
2022/02/02 10:05:04;;;;;;;3.85;1.20;;;16.50;84.80;;;;;;5052272;28;20395;-45
2022/02/02 10:15:24;;;;;;;5.88;1.75;;;16.30;90.40;;;;;;5052292;28;20525;-46
2022/02/02 10:18:23;;;;;;;6.03;1.20;;;16.30;84.90;;;;;;5052005;28;20032;-46
2022/02/02 10:20:51;;;;;;;4.32;1.67;;;16.30;90.60;;;;;;5048051;28;20541;-48
2022/02/02 10:23:31;;;;;;;4.20;1.50;;;16.20;84.70;;;;;;5052316;28;20415;-48
2022/02/02 10:26:19;;;;;;;5.10;1.77;;;16.20;90.70;;;;;;5051917;28;20029;-45
2022/02/02 10:28:45;;;;;;;5.95;1.60;;;;;;;;;;5051927;28;20025;-44
2022/02/02 10:31:11;;;;;;;4.28;1.38;;;;;;;;;;5051835;28;20399;-47
2022/02/02 10:33:37;;;;;;;5.28;1.48;;;;;;;;;;5055594;28;20047;-43
2022/02/02 10:36:20;;;;;;;2.63;1.27;;;16.10;90.90;;;;;;5055760;28;20044;-46
2022/02/02 10:39:08;;;;;;;4.20;0.95;;;16.00;85.50;;;;;;5055909;28;20023;-45
2022/02/02 10:41:55;;;;;;;4.10;1.67;;;16.00;85.70;;;;;;5056159;28;20029;-45
2022/02/02 10:44:26;;;;;;;3.83;1.48;;;16.00;90.90;;;;;;5055767;28;20557;-46
2022/02/02 10:47:04;;;;;;;3.83;1.15;;;;;;;;;;5056074;28;20032;-45
2022/02/02 10:49:44;;;;;;;4.45;1.45;;;;;;;;;;5055908;28;20041;-45
2022/02/02 10:55:46;;;;;;;5.70;1.30;;;15.90;85.80;;;;;;5055553;28;20035;-45
2022/02/02 10:58:40;;;;;;;3.03;1.23;;;16.00;91.00;;;;;;5055432;28;20392;-45
2022/02/02 11:01:32;;;;;;;3.60;1.25;;;16.00;90.40;;;;;;5055375;28;20037;-46
2022/02/02 11:06:43;;;;;;;4.45;1.30;;;;;;;;;;5055415;28;20059;-46
2022/02/02 11:09:11;;;;;;;3.25;1.02;;;16.00;91.10;;;;;;5055223;28;20429;-45
2022/02/02 11:11:45;;;;;;;4.53;1.75;;;16.00;86.10;;;;;;5055507;28;20086;-45
2022/02/02 11:14:37;;;;;;;4.07;1.52;;;15.90;91.20;;;;;;5055294;28;20102;-45
2022/02/02 11:17:12;;;;;;;5.72;1.60;;;16.00;91.20;;;;;;5055275;28;20028;-46
2022/02/02 11:19:39;;;;;;;4.05;1.75;;;;;;;;;;5055314;28;20414;-45
2022/02/02 11:22:33;;;;;;;2.17;1.20;;;16.00;86.60;;;;;;5055017;28;20029;-45
2022/02/02 11:25:02;;;;;;;2.80;1.35;;;16.00;86.50;;;;;;5055135;28;20025;-45
2022/02/02 11:27:42;;;;;;;6.05;1.48;;;15.90;86.80;;;;;;5054925;28;20372;-45
2022/02/02 11:30:22;;;;;;;3.67;1.23;;;15.90;91.40;;;;;;5055173;28;20029;-46
2022/02/02 11:32:48;;;;;;;3.22;1.05;;;;;;;;;;5054911;28;20521;-45
2022/02/02 11:35:37;;;;;;;6.85;1.40;;;15.90;87.10;;;;;;5054797;28;20033;-45
2022/02/02 11:38:11;;;;;;;4.30;1.40;;;15.90;91.60;;;;;;5055242;28;20491;-46
2022/02/02 11:46:50;;;;;;;2.90;0.77;;;15.80;91.40;;;;;;5020835;28;20499;-46
2022/02/02 11:49:19;;;;;;;5.05;1.33;;;;;;;;;;5054477;28;20024;-46
2022/02/02 11:51:45;;;;;;;3.50;1.20;;;;;;;;;;5054599;28;20029;-46
2022/02/02 11:54:16;;;;;;;4.47;1.30;;;15.80;91.50;;;;;;5054601;28;20033;-45
2022/02/02 11:57:05;;;;;;;4.70;1.60;;;15.80;88.10;;;;;;5054373;28;20039;-46
2022/02/02 11:59:51;;;;;;;4.22;1.42;;;15.90;87.30;;;;;;5054653;28;20040;-46
2022/02/02 12:02:26;;;;;;;4.40;1.45;;;;;;;;;;5054330;28;20052;-46
2022/02/02 12:05:02;;;;;;;3.00;1.15;;;15.90;87.10;;;;;;5054622;28;20040;-47
2022/02/02 12:49:21;;;;;;;3.20;1.20;;;;;;;;;;5053410;28;20128;-45
2022/02/02 12:57:39;;;;;;;3.10;1.33;;;;;;;;;;5053144;28;20079;-45
2022/02/02 13:00:10;;;;;;;4.22;1.50;;;15.90;91.20;;;;;;5053592;28;20029;-46
2022/02/02 13:02:41;;;;;;;4.53;1.30;;;16.00;91.20;;;;;;5052838;28;20041;-46
2022/02/02 13:05:08;;;;;;;3.47;1.02;;;16.10;91.20;;;;;;5053179;28;20025;-45
2022/02/02 13:07:36;;;;;;;6.20;1.20;;;;;;;;;;5053103;28;20059;-46
2022/02/02 13:10:05;;;;;;;4.60;1.27;;;16.50;90.80;;;;;;5053049;28;20043;-47
2022/02/02 13:12:55;;;;;;;2.97;1.17;;;16.60;85.20;;;;;;5052890;28;20017;-48
2022/02/02 13:16:16;;;;;;;2.35;0.85;;;16.80;85.00;;;;;;5052893;28;20418;-49
2022/02/02 13:18:24;;;;;;;3.53;1.25;;;;;;;;;;5041830;28;20048;-47
2022/02/02 13:23:41;;;;;;;2.17;0.80;;;;;;;;;;5052800;28;20079;-47
2022/02/02 13:26:14;;;;;;;1.92;0.68;;;17.40;90.20;;;;;;5052932;28;20100;-48
2022/02/02 13:28:54;;;;;;;3.10;1.08;;;17.50;84.00;;;;;;5052895;28;20474;-47
2022/02/02 13:31:48;;;;;;;1.35;0.68;;;17.60;83.80;;;;;;5052722;28;20499;-47
2022/02/02 13:34:56;;;;;;;2.30;0.90;;;17.80;90.10;;;;;;5052560;28;20092;-47
2022/02/02 13:43:25;;;;;;;2.33;0.82;;;17.80;83.00;;;;;;5052599;28;20170;-47
2022/02/02 13:46:16;;;;;;;3.28;0.90;;;17.90;82.80;;;;;;5052629;28;20029;-47
2022/02/02 13:49:28;;;;;;;;;;;17.90;89.60;;;;;;5052583;28;20373;-46
2022/02/02 13:52:27;;;;;;;2.50;1.20;;;18.00;82.60;;;;;;5049603;28;19932;-48
2022/02/02 14:00:26;;;;;;;3.75;1.10;;;;;;;;;;5052603;28;20035;-47
2022/02/02 14:06:16;;;;;;;2.58;1.10;;;;;;;;;;5052547;28;20036;-47
2022/02/02 14:33:03;;;;;;;1.33;0.55;;;;;;;;;;5051877;28;20119;-47
2022/02/02 14:35:30;;;;;;;3.40;1.33;;;;;;;;;;5052163;28;20108;-47
2022/02/02 14:37:58;;;;;;;2.17;0.63;;;;;;;;;;5052296;28;20017;-47
2022/02/02 14:41:03;;;;;;;4.78;0.90;;;;;;;;;;5052151;28;20036;-47
2022/02/02 14:43:24;;;;;;;5.18;1.73;;;;;;;;;;5047857;28;20400;-47
2022/02/02 14:45:54;;;;;;;3.20;1.00;;;;;;;;;;5052078;28;20029;-47
2022/02/02 14:48:27;;;;;;;5.80;1.13;;;;;;;;;;5052151;28;20055;-48
2022/02/02 14:51:05;;;;;;;4.53;0.90;;;;;;;;;;5051727;28;20398;-47
2022/02/02 14:53:44;;;;;;;2.15;1.00;;;;;;;;;;5052044;28;20025;-48
2022/02/02 15:05:19;;;;;;;1.73;0.65;;;;;;;;;;5051716;28;20029;-48
2022/02/02 15:08:42;;;;;;;3.50;0.80;;;;;;;;;;5051349;28;20541;-44
2022/02/02 15:32:02;;;;;;;3.53;0.70;;;;;;;;;;4973539;28;20139;-44
2022/02/02 15:37:27;;;;;;;3.00;0.70;;;;;;;;;;5016393;28;20082;-44
2022/02/02 15:40:04;;;;;;;2.85;0.90;;;;;;;;;;5054121;28;20598;-45
2022/02/02 15:43:22;;;;;;;3.88;1.17;;;;;;;;;;5054780;28;20064;-44
2022/02/02 15:58:35;;;;;;;3.42;1.05;;;;;;;;;;5054671;28;20159;-45
2022/02/02 16:03:38;;;;;;;3.38;1.17;;;18.00;89.70;;;;;;5054205;28;20057;-43
2022/02/02 16:06:12;;;;;;;2.30;0.90;;;;;;;;;;5054472;28;20025;-44
2022/02/02 16:08:40;;;;;;;2.83;0.85;;;;;;;;;;5054328;28;20032;-44
2022/02/02 16:13:40;;;;;;;2.30;0.88;;;;;;;;;;5054479;28;20033;-45
2022/02/02 16:16:36;;;;;;;3.35;0.77;;;;;;;;;;5054452;28;20111;-45
2022/02/02 16:19:36;;;;;;;4.05;0.60;;;;;;;;;;5053998;28;20032;-44
2022/02/02 16:25:04;;;;;;;1.52;0.60;;;;;;;;;;5054530;28;20036;-44
2022/02/02 16:37:59;;;;;;;1.67;0.65;;;;;;;;;;5053825;28;20078;-44
2022/02/02 16:40:31;;;;;;;3.22;0.95;;;;;;;;;;5053760;28;20448;-45
2022/02/02 16:43:13;;;;;;;2.30;0.50;;;18.00;89.60;;;;;;5053662;28;20032;-45
2022/02/02 16:45:39;;;;;;;1.85;0.52;;;;;;;;;;5053691;28;20040;-44
2022/02/02 16:48:06;;;;;;;2.03;0.57;;;;;;;;;;5053346;28;20406;-44
2022/02/02 16:50:36;;;;;;;1.65;0.55;;;;;;;;;;5053558;28;20124;-46
2022/02/02 16:53:09;;;;;;;2.70;0.88;;;;;;;;;;5053506;28;20029;-45
2022/02/02 16:55:45;;;;;;;1.70;0.63;;;;;;;;;;5053293;28;20032;-46
2022/02/02 17:31:04;;;;;;;2.25;0.55;;;;;;;;;;5052764;28;20044;-45
2022/02/02 17:33:38;;;;;;;3.00;0.60;;;;;;;;;;5053111;28;20071;-45
2022/02/02 17:36:17;;;;;;;0.98;0.68;;;;;;;;;;5053070;28;20029;-46
2022/02/02 17:41:20;;;;;;;1.27;0.52;;;;;;;;;;5052887;28;20357;-45
2022/02/02 18:19:48;;;;;;;1.70;0.52;;;;;;;;;;5007951;28;20125;-46
2022/02/02 18:22:15;;;;;;;2.42;0.60;;;;;;;;;;5052480;28;20399;-45
2022/02/02 18:24:57;;;;;;;0.88;0.60;;;;;;;;;;5052081;28;20025;-46
2022/02/02 18:27:32;;;;;;;0.82;0.40;;;;;;;;;;5052425;28;20287;-46
2022/02/02 18:30:13;;;;;;;2.65;0.80;;;;;;;;;;5051925;28;20029;-45
2022/02/02 18:33:03;;;;;;;2.58;0.82;;;;;;;;;;5052358;28;20033;-45
2022/02/02 18:35:35;;;;;;;1.60;0.75;;;;;;;;;;5052424;28;20036;-45
2022/02/02 18:39:07;;;;;;;1.73;0.60;;;;;;;;;;5052291;28;20151;-46
2022/02/02 18:43:43;;;;;;;1.50;0.77;;;;;;;;;;5052272;28;20041;-45
2022/02/02 18:48:48;;;;;;;2.13;0.80;;;;;;;;;;5051884;28;20392;-45
2022/02/02 18:54:01;;;;;;;3.00;0.90;;;;;;;;;;5052585;28;20037;-45
2022/02/02 18:56:49;;;;;;;3.17;1.08;;;;;;;;;;5055639;28;20033;-45
2022/02/02 19:02:24;;;;;;;2.00;1.23;;;;;;;;;;5055634;28;20079;-45
2022/02/02 19:37:26;;;;;;;1.50;0.80;;;;;;;;;;5055404;28;20200;-47
2022/02/02 19:40:11;;;;;;;1.17;0.60;;;;;;;;;;5055031;28;20108;-48
2022/02/02 19:52:27;;;;;;;1.52;0.82;;;;;;;;;;5054723;28;20044;-47
2022/02/02 20:02:14;;;;;;;3.47;1.00;;;16.60;87.00;;;;;;5054293;28;20102;-47
2022/02/02 20:04:48;;;;;;;1.52;0.93;;;;;;;;;;5053992;28;20045;-47
2022/02/02 20:10:01;;;;;;;1.30;0.80;;;;;;;;;;5054352;28;20617;-47
2022/02/02 20:12:31;;;;;;;1.42;0.88;;;;;;;;;;5054594;28;20036;-47
2022/02/02 20:14:57;;;;;;;2.03;1.10;;;;;;;;;;5054329;28;20043;-47
2022/02/02 20:17:25;;;;;;;1.92;0.77;;;;;;;;;;5054109;28;20029;-49
2022/02/02 20:19:55;;;;;;;1.60;0.90;;;16.60;91.20;;;;;;5054068;28;20112;-47
2022/02/02 20:22:24;;;;;;;1.88;0.93;;;16.70;90.30;;;;;;5054074;28;20094;-46
2022/02/02 20:24:55;;;;;;;1.23;0.88;;;;;;;;;;5054072;28;20325;-47
2022/02/02 20:27:21;;;;;;;1.45;1.10;;;;;;;;;;5053931;28;20104;-46
2022/02/02 20:29:47;;;;;;;1.45;1.00;;;;;;;;;;5053864;28;20041;-47
2022/02/02 20:32:13;;;;;;;3.42;1.50;;;;;;;;;;5053547;28;20392;-47
2022/02/02 20:34:39;;;;;;;0.90;0.90;;;;;;;;;;5053612;28;20029;-48
2022/02/02 20:37:05;;;;;;;1.67;0.80;;;;;;;;;;5053597;28;20050;-47
2022/02/02 20:42:01;;;;;;;1.45;1.00;;;;;;;;;;5053848;28;20037;-50
2022/02/02 20:44:45;;;;;;;1.40;0.80;;;;;;;;;;5053502;28;20092;-48
2022/02/02 21:04:02;;;;;;;2.45;0.88;;;;;;;;;;5053027;28;20478;-45
2022/02/02 21:06:31;;;;;;;1.35;0.65;;;;;;;;;;5052992;28;20086;-47
2022/02/02 21:14:22;;;;;;;1.58;0.75;;;;;;;;;;4981731;28;20509;-48
2022/02/02 21:16:48;;;;;;;3.00;1.00;;;;;;;;;;5052137;28;20021;-47
2022/02/02 21:19:26;;;;;;;1.00;0.70;;;;;;;;;;5053045;28;20029;-47
2022/02/02 21:21:57;;;;;;;2.25;0.95;;;;;;;;;;5052971;28;20029;-48
2022/02/02 21:29:21;;;;;;;1.00;0.68;;;;;;;;;;5052587;28;20133;-47
2022/02/02 21:31:48;;;;;;;0.85;0.60;;;;;;;;;;5052563;28;20499;-46
2022/02/02 21:34:14;;;;;;;0.82;0.57;;;;;;;;;;5052487;28;20059;-47
2022/02/02 21:36:40;;;;;;;3.33;1.00;;;;;;;;;;5052469;28;20426;-45
2022/02/02 21:39:08;;;;;;;0.98;0.60;;;;;;;;;;5052479;28;20096;-46
2022/02/02 21:41:38;;;;;;;0.85;0.50;;;;;;;;;;5052933;28;20066;-46
2022/02/02 21:44:06;;;;;;;2.08;0.60;;;17.10;91.40;;;;;;5052826;28;20029;-46
2022/02/02 21:46:32;;;;;;;1.48;0.77;;;;;;;;;;5052410;28;20028;-46
2022/02/02 21:49:00;;;;;;;1.30;0.88;;;;;;;;;;5052275;28;20395;-45
2022/02/02 21:51:37;;;;;;;1.77;0.80;;;;;;;;;;5052292;28;20120;-45
2022/02/02 21:54:04;;;;;;;0.88;0.85;;;;;;;;;;5052517;28;20087;-46
2022/02/02 21:56:30;;;;;;;2.47;1.23;;;;;;;;;;5052240;28;20380;-45
2022/02/02 21:58:56;;;;;;;1.67;0.93;;;;;;;;;;5052112;28;20044;-46
2022/02/02 22:01:25;;;;;;;2.65;1.00;;;16.80;91.60;;;;;;5051906;28;20021;-47
2022/02/02 22:03:51;;;;;;;4.30;1.10;;;;;;;;;;5052247;28;20044;-47
2022/02/02 22:06:17;;;;;;;1.85;0.98;;;;;;;;;;5052087;28;20099;-46
2022/02/02 22:08:43;;;;;;;1.75;1.00;;;;;;;;;;5052015;28;20028;-46
2022/02/02 22:11:09;;;;;;;4.03;1.00;;;;;;;;;;5052089;28;20091;-46
2022/02/02 22:13:46;;;;;;;2.88;0.90;;;;;;;;;;5052075;28;20543;-47
2022/02/02 22:16:17;;;;;;;5.80;0.93;;;;;;;;;;5052346;28;20075;-47
2022/02/02 22:18:45;;;;;;;1.95;0.80;;;;;;;;;;5052342;28;20391;-50
2022/02/02 22:21:11;;;;;;;3.17;1.00;;;;;;;;;;5052136;28;20449;-47
2022/02/02 22:23:41;;;;;;;4.30;1.02;;;;;;;;;;5052013;28;20032;-47
2022/02/02 22:26:07;;;;;;;1.20;0.70;;;;;;;;;;5051999;28;20105;-46
2022/02/02 22:28:33;;;;;;;3.92;0.93;;;;;;;;;;5053884;28;20158;-46
2022/02/02 22:30:59;;;;;;;1.90;0.90;;;;;;;;;;5055865;28;20395;-46
2022/02/02 22:33:25;;;;;;;2.05;1.02;;;16.50;90.90;;;;;;5055933;28;20127;-46
2022/02/02 22:35:51;;;;;;;4.22;1.10;;;;;;;;;;5055936;28;20112;-46
2022/02/02 22:38:18;;;;;;;3.88;0.95;;;;;;;;;;5055855;28;20031;-47
2022/02/02 22:40:44;;;;;;;2.45;1.02;;;;;;;;;;5055901;28;20349;-45
2022/02/02 22:43:11;;;;;;;1.50;1.02;;;;;;;;;;5055782;28;20036;-44
2022/02/02 22:45:41;;;;;;;4.82;1.15;;;;;;;;;;5055711;28;20032;-44
2022/02/02 22:48:08;;;;;;;1.67;0.90;;;;;;;;;;5056040;28;20105;-45
2022/02/02 22:50:34;;;;;;;4.05;0.98;;;;;;;;;;5055584;28;20047;-44
2022/02/02 22:53:00;;;;;;;2.40;1.10;;;;;;;;;;5055574;28;20025;-45
2022/02/02 22:55:26;;;;;;;3.03;1.00;;;;;;;;;;5055900;28;20064;-44
2022/02/02 22:57:53;;;;;;;3.90;1.42;;;;;;;;;;5055955;28;20035;-45
2022/02/02 23:00:23;;;;;;;2.53;0.88;;;16.40;92.50;;;;;;5055810;28;20072;-44
2022/02/02 23:02:54;;;;;;;;;;;16.30;92.60;;;;;;5055722;28;20037;-44
2022/02/02 23:05:26;;;;;;;3.72;1.50;;;;;;;;;;5055760;28;19912;-44
2022/02/02 23:07:52;;;;;;;3.75;1.00;;;;;;;;;;5055391;28;20036;-45
2022/02/02 23:10:20;;;;;;;1.95;0.98;;;;;;;;;;5055439;28;20037;-44
2022/02/02 23:12:46;;;;;;;3.58;1.40;;;;;;;;;;5055507;28;20079;-44
2022/02/02 23:15:19;;;;;;;1.58;0.93;;;16.30;92.50;;;;;;5055176;28;20063;-44
2022/02/02 23:17:45;;;;;;;2.60;0.95;;;;;;;;;;5055571;28;20044;-45
2022/02/02 23:20:11;;;;;;;1.80;1.17;;;;;;;;;;5055051;28;20025;-44
2022/02/02 23:22:37;;;;;;;1.45;0.80;;;;;;;;;;5055278;28;20368;-45
2022/02/02 23:25:08;;;;;;;3.58;1.33;;;;;;;;;;5055212;28;20037;-45
2022/02/02 23:27:36;;;;;;;6.90;1.40;;;16.20;92.70;;;;;;5054879;28;20483;-44
2022/02/02 23:30:08;;;;;;;3.80;0.65;;;16.30;92.70;;;;;;5054991;28;20025;-44
2022/02/02 23:32:34;;;;;;;1.67;1.02;;;;;;;;;;5055346;28;20033;-43
2022/02/02 23:35:00;;;;;;;2.30;0.70;;;16.30;92.70;;;;;;5055129;28;20075;-44
2022/02/02 23:37:27;;;;;;;2.65;0.77;;;16.30;92.50;;;;;;5054997;28;20060;-44
2022/02/02 23:39:53;;;;;;;2.75;1.02;;;;;;;;;;5053933;28;20025;-44
2022/02/02 23:42:27;;;;;;;2.05;1.02;;;;;;;;;;5054792;28;20032;-44
2022/02/02 23:44:53;;;;;;;1.52;0.80;;;;;;;;;;5055130;28;20404;-44
2022/02/02 23:47:21;;;;;;;1.48;0.90;;;16.20;92.60;;;;;;5054786;28;20039;-44
2022/02/02 23:49:57;;;;;;;1.73;0.73;;;16.20;92.60;;;;;;5054879;28;20041;-44
2022/02/02 23:52:28;;;;;;;2.25;1.13;;;16.20;92.60;;;;;;5054742;28;20472;-44
2022/02/02 23:54:56;;;;;;;1.17;0.93;;;16.20;92.80;;;;;;5054690;28;20036;-45
2022/02/02 23:57:41;;;;;;;2.75;1.17;;;16.20;92.50;;;;;;5054611;28;20028;-46
